createdAt,value
2019-02-28T00:09:19.927Z,13
2019-02-28T00:19:20.981Z,12.5
2019-02-28T00:29:18.333Z,12.9
2019-02-28T00:39:17.541Z,12.5
2019-02-28T00:49:35.942Z,12.9
2019-02-28T00:59:15.939Z,12.6
2019-02-28T01:09:15.142Z,12.5
2019-02-28T01:19:14.345Z,12.9
2019-02-28T01:29:13.547Z,13.2
2019-02-28T01:39:12.750Z,13.2
2019-02-28T01:49:11.946Z,12.8
2019-02-28T01:59:11.151Z,12.5
2019-02-28T02:09:10.966Z,12.3
2019-02-28T02:19:09.553Z,12.9
2019-02-28T02:29:08.761Z,13.2
2019-02-28T02:39:07.959Z,12.6
2019-02-28T02:49:07.213Z,12.7
2019-02-28T02:59:06.362Z,12.7
2019-02-28T03:09:09.853Z,13.2
2019-02-28T03:19:04.769Z,12.8
2019-02-28T03:29:07.476Z,12.8
2019-02-28T03:39:03.180Z,13.2
2019-02-28T03:49:02.374Z,12.5
2019-02-28T03:59:01.576Z,13.1
2019-02-28T04:09:06.969Z,12.9
2019-02-28T04:18:59.977Z,13.1
2019-02-28T04:28:59.178Z,12.4
2019-02-28T04:38:58.381Z,12.5
2019-02-28T04:48:57.580Z,12.6
2019-02-28T04:58:59.483Z,12.8
2019-02-28T05:08:55.984Z,13.2
2019-02-28T05:18:55.189Z,13.1
2019-02-28T05:28:54.393Z,12.5
2019-02-28T05:38:56.462Z,12.5
2019-02-28T05:48:52.803Z,12.8
2019-02-28T05:58:52.452Z,13.8
2019-02-28T06:08:51.215Z,14.6
2019-02-28T06:18:50.422Z,14.4
2019-02-28T06:28:49.623Z,14.4
2019-02-28T06:38:51.437Z,13.9
2019-02-28T06:48:48.030Z,14.6
2019-02-28T06:58:47.233Z,14.4
2019-02-28T07:08:46.439Z,14.2
2019-02-28T07:18:45.643Z,14.3
2019-02-28T07:28:44.849Z,13.8
2019-02-28T07:38:44.053Z,14.7
2019-02-28T07:48:43.260Z,14.1
2019-02-28T07:58:42.462Z,14.2
2019-02-28T08:08:41.668Z,14.2
2019-02-28T08:18:40.875Z,14.2
2019-02-28T08:28:40.082Z,14.3
2019-02-28T08:38:39.301Z,14.1
2019-02-28T08:48:38.501Z,14.4
2019-02-28T08:58:38.485Z,14.4
2019-02-28T09:08:36.916Z,14.7
2019-02-28T09:18:36.122Z,14.5
2019-02-28T09:28:35.334Z,14.7
2019-02-28T09:38:34.536Z,14.7
2019-02-28T09:48:33.904Z,14.7
2019-02-28T09:58:32.966Z,14.4
2019-02-28T10:08:33.444Z,14.4
2019-02-28T10:18:31.377Z,14.4
2019-02-28T10:28:30.587Z,14.5
2019-02-28T10:38:32.899Z,14.3
2019-02-28T10:48:29.009Z,13.9
2019-02-28T10:58:28.219Z,14.3
2019-02-28T11:02:56.649Z,14.4
2019-02-28T11:13:43.991Z,14.7
2019-02-28T11:23:43.205Z,14.3
2019-02-28T11:33:42.439Z,14.6
2019-02-28T11:43:41.623Z,14.4
2019-02-28T11:53:40.830Z,13.8
2019-02-28T12:03:40.037Z,14.3
2019-02-28T12:13:39.251Z,14.5
2019-02-28T12:23:38.535Z,14.4
2019-02-28T12:33:37.830Z,13.5
2019-02-28T12:43:40.021Z,13.1
2019-02-28T12:53:36.423Z,13.1
2019-02-28T13:03:35.670Z,13.3
2019-02-28T13:13:34.912Z,12.6
2019-02-28T13:23:34.143Z,12.6
2019-02-28T13:33:33.318Z,13
2019-02-28T13:43:32.520Z,12.7
2019-02-28T13:53:31.931Z,13.5
2019-02-28T14:03:30.925Z,12.9
2019-02-28T14:13:34.660Z,12.8
2019-02-28T14:23:29.336Z,13.1
2019-02-28T14:33:28.533Z,13.1
2019-02-28T14:43:27.735Z,13.1
2019-02-28T14:53:26.936Z,12.8
2019-02-28T15:03:26.138Z,12.6
2019-02-28T15:13:25.341Z,13.2
2019-02-28T15:23:24.542Z,13.1
2019-02-28T15:33:23.799Z,13
2019-02-28T15:43:23.001Z,12.7
2019-02-28T15:53:22.158Z,12.9
2019-02-28T16:03:21.369Z,13.1
2019-02-28T16:13:22.604Z,12.9
2019-02-28T16:23:19.790Z,12.6
2019-02-28T16:33:20.804Z,13.2
2019-02-28T16:43:20.686Z,13.2
2019-02-28T16:53:17.405Z,13.1
2019-02-28T17:03:16.665Z,13.1
2019-02-28T17:13:15.879Z,12.4
2019-02-28T17:23:15.087Z,12.6
2019-02-28T17:33:14.235Z,13.1
2019-02-28T17:39:43.529Z,12.5
2019-02-28T17:49:42.784Z,12.6
2019-02-28T17:59:42.092Z,12.9
2019-02-28T18:09:41.204Z,13.2
2019-02-28T18:19:40.363Z,12.8
2019-02-28T18:29:39.603Z,13.2
2019-02-28T18:39:38.796Z,12.7
2019-02-28T18:49:38.083Z,13.2
2019-02-28T18:59:37.421Z,13.2
2019-02-28T19:09:36.659Z,13
2019-02-28T19:19:35.949Z,12.6
2019-02-28T19:29:35.240Z,12.6
2019-02-28T19:39:34.490Z,12.5
2019-02-28T19:49:33.702Z,13.2
2019-02-28T19:59:32.911Z,13
2019-02-28T20:09:32.120Z,12.8
2019-02-28T20:19:31.389Z,12.5
2019-02-28T20:29:30.551Z,13
2019-02-28T20:39:29.771Z,12.5
2019-02-28T20:49:28.989Z,13
2019-02-28T20:59:28.207Z,13.1
2019-02-28T21:09:21.344Z,13.1
2019-02-28T21:19:20.558Z,13.1
2019-02-28T21:29:19.773Z,12.5
2019-02-28T21:39:18.987Z,12.7
2019-02-28T21:49:18.196Z,13.1
2019-02-28T21:59:17.408Z,13
2019-02-28T22:09:16.679Z,12.5
2019-02-28T22:19:15.971Z,12.9
2019-02-28T22:29:15.212Z,13.1
2019-02-28T22:39:14.496Z,12.8
2019-02-28T22:49:13.788Z,12.5
2019-02-28T22:59:13.073Z,12.6
2019-02-28T23:09:12.315Z,12.6
2019-02-28T23:19:11.522Z,12.8
2019-02-28T23:29:10.733Z,13.1
2019-02-28T23:39:09.936Z,12.4
2019-02-28T23:49:09.143Z,13.2
2019-02-28T23:59:08.354Z,12.9
